Time;durP1;ratioP1;P1;durP2;ratioP2;P2;SDS_P1;SDS_P2;PMS_P1;PMS_P2;Temp;Humidity;BMP_temperature;BMP_pressure;BME280_temperature;BME280_humidity;BME280_pressure;Samples;Min_cycle;Max_cycle;Signal;HPM_P1;HPM_P2
2023/07/14 00:00:08;;;;;;;;;50.67;43.33;;;;;19.81;74.62;101688.41;6188164;23;45180;-76
2023/07/14 00:02:35;;;;;;;;;45.67;39.00;;;;;19.78;73.94;101677.91;6188863;23;45238;-77
2023/07/14 00:05:01;;;;;;;;;47.00;40.67;;;;;19.78;72.81;101669.84;6189530;23;45811;-77
2023/07/14 00:07:26;;;;;;;;;55.33;47.00;;;;;19.77;73.50;101671.66;6187993;23;45541;-77
2023/07/14 00:09:52;;;;;;;;;49.75;43.00;;;;;19.74;73.99;101666.50;6167426;23;45295;-77
2023/07/14 00:12:18;;;;;;;;;50.00;43.00;;;;;19.71;74.58;101658.69;6199382;23;45362;-77
2023/07/14 00:14:44;;;;;;;;;52.25;44.25;;;;;19.78;74.81;101659.09;6197283;23;45247;-77
2023/07/14 00:17:12;;;;;;;;;49.33;42.00;;;;;19.61;74.38;101643.34;6197997;23;45226;-77
2023/07/14 00:19:38;;;;;;;;;51.25;43.75;;;;;19.63;75.49;101646.78;6198400;23;45193;-77
2023/07/14 00:22:12;;;;;;;;;49.00;42.25;;;;;19.61;75.83;101646.03;6198899;23;45257;-78
2023/07/14 00:24:38;;;;;;;;;49.50;42.00;;;;;19.61;76.63;101654.06;6196802;23;46125;-77
2023/07/14 00:27:09;;;;;;;;;53.25;45.25;;;;;19.60;76.90;101647.00;6198660;23;45215;-77
2023/07/14 00:29:38;;;;;;;;;58.75;46.75;;;;;19.62;76.66;101663.84;6196472;23;44715;-77
2023/07/14 00:32:30;;;;;;;;;66.67;55.00;;;;;19.56;76.57;101653.56;6196708;23;45912;-77
2023/07/14 00:34:55;;;;;;;;;70.25;57.00;;;;;19.57;77.13;101653.44;6189139;23;45336;-77
2023/07/14 00:37:20;;;;;;;;;69.33;56.67;;;;;19.42;77.51;101634.88;6187057;23;45268;-77
2023/07/14 00:39:46;;;;;;;;;74.33;59.67;;;;;19.45;77.56;101648.09;6189234;23;45499;-77
2023/07/14 00:42:13;;;;;;;;;75.00;65.75;;;;;19.49;77.98;101644.22;6187578;23;45252;-77
2023/07/14 00:44:39;;;;;;;;;79.67;67.33;;;;;19.40;78.17;101626.97;6188917;23;45315;-77
2023/07/14 00:47:17;;;;;;;;;83.33;72.00;;;;;19.44;77.12;101639.16;6160850;23;45299;-76
2023/07/14 00:49:42;;;;;;;;;81.67;68.67;;;;;19.50;78.07;101651.31;6189031;23;45327;-77
2023/07/14 00:52:41;;;;;;;;;84.50;77.75;;;;;19.46;78.06;101639.94;6188418;23;45391;-76
2023/07/14 00:55:34;;;;;;;;;95.00;89.00;;;;;19.48;77.74;101645.19;6160997;23;47964;-77
2023/07/14 00:58:00;;;;;;;;;97.67;84.67;;;;;19.44;78.83;101641.00;6186450;23;45698;-77
2023/07/14 01:00:30;;;;;;;;;92.00;86.00;;;;;19.42;77.12;101630.38;6159012;23;45791;-77
2023/07/14 01:02:56;;;;;;;;;88.50;79.50;;;;;19.34;77.25;101613.09;6185748;23;45242;-77
2023/07/14 01:05:23;;;;;;;;;82.33;74.33;;;;;19.42;77.39;101633.06;6185867;23;46235;-77
2023/07/14 01:07:49;;;;;;;;;76.50;63.00;;;;;19.27;77.08;101595.72;6183905;23;45299;-77
2023/07/14 01:10:18;;;;;;;;;72.67;58.00;;;;;19.41;76.80;101625.13;6185794;23;45287;-77
2023/07/14 01:12:49;;;;;;;;;67.00;54.25;;;;;19.34;76.77;101613.09;6183711;23;45656;-77
2023/07/14 01:15:16;;;;;;;;;71.25;53.25;;;;;19.31;77.71;101613.28;6183588;23;48165;-77
2023/07/14 01:17:42;;;;;;;;;63.33;52.33;;;;;19.23;78.05;101606.66;6183887;23;45234;-77
2023/07/14 01:20:09;;;;;;;;;56.25;47.50;;;;;19.33;78.27;101625.66;6184209;23;45345;-77
2023/07/14 01:22:34;;;;;;;;;60.50;50.00;;;;;19.29;78.26;101624.13;6186783;23;45227;-77
2023/07/14 01:25:03;;;;;;;;;60.25;49.00;;;;;19.24;78.29;101621.75;6190315;23;46230;-78
2023/07/14 01:27:29;;;;;;;;;66.33;53.33;;;;;19.20;78.54;101617.59;6189541;23;45305;-77
2023/07/14 01:29:56;;;;;;;;;70.50;58.75;;;;;19.20;78.42;101606.88;6190072;23;45283;-77
2023/07/14 01:32:23;;;;;;;;;66.00;53.33;;;;;19.11;78.85;101587.88;6190230;23;45414;-77
2023/07/14 01:34:49;;;;;;;;;70.67;61.00;;;;;19.07;79.33;101584.56;6163166;23;46788;-77
2023/07/14 01:37:18;;;;;;;;;76.33;60.33;;;;;19.12;79.13;101601.19;6189690;23;45314;-77
2023/07/14 01:39:43;;;;;;;;;75.00;62.33;;;;;19.03;79.34;101593.78;6187011;23;45316;-77
2023/07/14 01:42:09;;;;;;;;;75.67;69.67;;;;;19.02;79.73;101592.06;6184042;23;45425;-78
2023/07/14 01:44:35;;;;;;;;;77.67;74.00;;;;;18.91;79.91;101581.25;6184323;23;47577;-77
2023/07/14 01:47:02;;;;;;;;;96.67;88.00;;;;;19.00;80.29;101596.69;6186271;23;45313;-77
2023/07/14 01:49:27;;;;;;;;;84.00;74.00;;;;;18.98;80.80;101592.38;6186482;23;45220;-77
2023/07/14 01:51:56;;;;;;;;;85.33;80.33;;;;;18.84;80.69;101571.91;6187050;23;45184;-77
2023/07/14 01:54:41;;;;;;;;;79.33;70.67;;;;;18.84;80.54;101582.63;6186355;23;46584;-77
2023/07/14 01:57:13;;;;;;;;;75.33;69.00;;;;;18.88;80.64;101592.16;6185926;23;45396;-77
2023/07/14 01:59:44;;;;;;;;;70.00;60.00;;;;;18.85;80.89;101575.44;6185847;23;45163;-77
2023/07/14 02:02:15;;;;;;;;;67.33;54.00;;;;;18.79;81.37;101567.81;6186374;23;45383;-77
2023/07/14 02:04:41;;;;;;;;;62.50;48.25;;;;;18.74;81.80;101568.16;6186347;23;45177;-77
2023/07/14 02:07:13;;;;;;;;;58.00;48.00;;;;;18.68;81.36;101568.56;6183931;23;45247;-77
2023/07/14 02:09:38;;;;;;;;;58.33;48.00;;;;;18.62;82.28;101556.44;6188653;23;45278;-76
2023/07/14 02:12:06;;;;;;;;;60.67;49.00;;;;;18.64;81.58;101575.97;6189757;23;45327;-77
2023/07/14 02:14:42;;;;;;;;;50.33;42.67;;;;;18.63;81.81;101576.03;6190899;23;46190;-76
2023/07/14 02:17:17;;;;;;;;;51.00;43.67;;;;;18.60;82.19;101574.44;6192766;23;44789;-77
2023/07/14 02:19:42;;;;;;;;;48.50;41.50;;;;;18.57;82.80;101576.47;6196551;23;45251;-77
2023/07/14 02:22:08;;;;;;;;;50.75;40.75;;;;;18.45;83.12;101563.88;6198403;23;45454;-77
2023/07/14 02:24:33;;;;;;;;;52.00;42.75;;;;;18.50;82.76;101576.03;6196661;23;47179;-77
2023/07/14 02:27:02;;;;;;;;;49.00;41.50;;;;;18.37;83.28;101560.84;6197577;23;45242;-77
2023/07/14 02:29:28;;;;;;;;;42.75;37.00;;;;;18.43;83.92;101577.38;6198812;23;45205;-77
2023/07/14 02:32:12;;;;;;;;;48.25;40.50;;;;;18.37;83.48;101572.44;6197518;23;45159;-77
2023/07/14 02:34:51;;;;;;;;;45.25;39.00;;;;;18.23;83.87;101549.25;6170122;23;46532;-77
2023/07/14 02:40:50;;;;;;;;;43.00;36.75;;;;;18.28;84.05;101558.81;6198329;23;45360;-76
2023/07/14 02:43:17;;;;;;;;;43.25;37.75;;;;;18.25;85.15;101564.38;6198694;23;45370;-77
2023/07/14 02:46:01;;;;;;;;;46.00;39.75;;;;;18.17;84.81;101562.19;6172436;23;45391;-77
2023/07/14 02:48:38;;;;;;;;;41.75;35.75;;;;;18.03;84.19;101547.03;6199209;23;45428;-77
2023/07/14 02:51:03;;;;;;;;;49.00;40.25;;;;;18.17;86.09;101571.09;6197279;23;45245;-76
2023/07/14 02:53:29;;;;;;;;;52.25;43.00;;;;;18.15;85.86;101564.13;6196755;23;45343;-77
2023/07/14 02:55:54;;;;;;;;;44.75;37.75;;;;;18.12;86.11;101558.97;6198307;23;45460;-77
2023/07/14 02:58:20;;;;;;;;;48.25;40.50;;;;;18.10;86.28;101559.06;6198339;23;45403;-77
2023/07/14 03:00:45;;;;;;;;;47.25;37.75;;;;;18.08;86.25;101568.16;6190830;23;45357;-76
2023/07/14 03:03:11;;;;;;;;;42.50;36.50;;;;;18.05;86.76;101550.50;6189642;23;46798;-77
2023/07/14 03:05:36;;;;;;;;;45.75;39.25;;;;;18.03;86.47;101551.56;6190000;23;46464;-77
2023/07/14 03:08:07;;;;;;;;;42.50;36.25;;;;;17.96;85.45;101539.53;6195052;23;45308;-76
2023/07/14 03:10:33;;;;;;;;;47.75;39.25;;;;;18.03;86.50;101548.88;6194636;23;44973;-77
2023/07/14 03:12:58;;;;;;;;;50.00;41.50;;;;;17.96;86.99;101527.03;6195845;23;45306;-77
2023/07/14 03:15:24;;;;;;;;;51.25;40.25;;;;;18.01;86.72;101535.59;6197378;23;50802;-77
2023/07/14 03:17:50;;;;;;;;;48.75;40.00;;;;;17.86;86.65;101509.00;6170435;23;45456;-77
2023/07/14 03:20:15;;;;;;;;;41.75;37.00;;;;;17.88;86.76;101517.75;6196538;23;45479;-77
2023/07/14 03:22:40;;;;;;;;;48.25;39.50;;;;;17.95;87.64;101533.31;6187100;23;45596;-77
2023/07/14 03:25:06;;;;;;;;;48.00;39.00;;;;;17.87;87.62;101524.94;6188939;23;45275;-78
2023/07/14 03:27:32;;;;;;;;;43.50;37.50;;;;;17.83;87.90;101512.72;6191020;23;45415;-77
2023/07/14 03:29:57;;;;;;;;;28.50;28.25;;;;;17.82;88.47;101515.50;6191549;23;45180;-77
2023/07/14 03:32:23;;;;;;;;;32.00;31.00;;;;;17.87;88.20;101534.75;6191032;23;45183;-77
2023/07/14 03:34:48;;;;;;;;;27.50;26.75;;;;;17.91;89.17;101534.47;6191444;23;45235;-77
2023/07/14 03:37:13;;;;;;;;;37.50;34.25;;;;;17.93;88.20;101537.06;6191727;23;45200;-77
2023/07/14 03:39:39;;;;;;;;;28.75;25.25;;;;;17.90;88.82;101524.72;6190851;23;45336;-76
2023/07/14 03:42:04;;;;;;;;;33.75;30.25;;;;;17.85;88.49;101507.25;6185589;23;45242;-76
2023/07/14 03:44:31;;;;;;;;;31.00;28.75;;;;;17.87;88.99;101514.22;6185761;23;45482;-77
2023/07/14 03:46:57;;;;;;;;;33.25;27.00;;;;;17.88;88.78;101509.72;6187466;23;45345;-76
2023/07/14 03:49:22;;;;;;;;;32.50;28.25;;;;;17.94;89.43;101503.97;6187832;23;45441;-77
2023/07/14 03:51:47;;;;;;;;;23.75;20.50;;;;;17.97;89.67;101501.94;6186869;23;45352;-76
2023/07/14 03:54:13;;;;;;;;;28.25;27.75;;;;;17.98;89.70;101495.66;6185112;23;45511;-76
2023/07/14 03:56:38;;;;;;;;;21.25;19.25;;;;;17.92;90.22;101490.72;6186485;23;45206;-76
2023/07/14 03:59:03;;;;;;;;;25.00;22.25;;;;;18.03;90.07;101501.53;6186370;23;45317;-76
2023/07/14 04:01:29;;;;;;;;;32.00;28.50;;;;;18.05;89.51;101499.63;6183549;23;45359;-76
2023/07/14 04:03:55;;;;;;;;;28.75;28.25;;;;;18.07;90.58;101500.38;6186352;23;45451;-76
2023/07/14 04:06:21;;;;;;;;;20.50;20.00;;;;;18.01;90.78;101494.56;6186919;23;45577;-76
2023/07/14 04:08:50;;;;;;;;;28.25;23.00;;;;;18.07;90.02;101496.84;6185357;23;45337;-77
2023/07/14 04:11:15;;;;;;;;;30.25;28.00;;;;;18.15;88.46;101497.19;6186751;23;45421;-76
2023/07/14 04:13:40;;;;;;;;;30.75;29.50;;;;;18.21;90.16;101502.97;6186827;23;46455;-77
2023/07/14 04:16:09;;;;;;;;;32.00;30.50;;;;;18.18;90.13;101487.13;6187219;23;45232;-76
2023/07/14 04:18:36;;;;;;;;;30.75;28.00;;;;;18.30;89.41;101495.28;6187230;23;45203;-76
2023/07/14 04:21:07;;;;;;;;;41.50;36.25;;;;;18.29;89.37;101480.19;6187391;23;45501;-76
2023/07/14 04:23:34;;;;;;;;;32.50;28.00;;;;;18.34;90.25;101492.28;6185943;23;45570;-77
2023/07/14 04:26:00;;;;;;;;;46.50;39.50;;;;;18.43;87.62;101498.81;6187023;23;45282;-77
2023/07/14 04:28:26;;;;;;;;;39.50;35.50;;;;;18.47;86.90;101503.88;6187227;23;45262;-77
2023/07/14 04:30:56;;;;;;;;;43.00;36.75;;;;;18.52;86.59;101498.25;6186420;23;45463;-76
2023/07/14 04:33:22;;;;;;;;;46.25;38.00;;;;;18.52;86.82;101491.03;6190973;23;46187;-76
2023/07/14 04:35:49;;;;;;;;;45.75;36.25;;;;;18.61;86.36;101494.94;6190691;23;45672;-76
2023/07/14 04:38:15;;;;;;;;;39.25;35.50;;;;;18.53;85.92;101468.66;6192375;23;45499;-76
2023/07/14 04:40:41;;;;;;;;;42.25;35.25;;;;;18.62;83.57;101472.50;6192178;23;45611;-76
2023/07/14 04:43:06;;;;;;;;;43.50;35.75;;;;;18.71;85.35;101477.25;6192086;23;45461;-76
2023/07/14 04:45:37;;;;;;;;;36.50;33.75;;;;;18.70;84.43;101471.03;6193207;23;45145;-77
2023/07/14 04:48:03;;;;;;;;;43.25;37.50;;;;;18.69;85.38;101465.75;6190392;23;45409;-76
2023/07/14 04:50:28;;;;;;;;;35.00;33.00;;;;;18.70;85.66;101467.47;6191631;23;45453;-76
2023/07/14 04:52:54;;;;;;;;;34.75;32.25;;;;;18.72;87.33;101481.63;6192229;23;45297;-76
2023/07/14 04:55:19;;;;;;;;;42.00;37.25;;;;;18.72;86.47;101465.53;6193106;23;45279;-76
2023/07/14 04:57:44;;;;;;;;;45.00;38.00;;;;;18.72;84.21;101455.69;6164867;23;49912;-77
2023/07/14 05:00:11;;;;;;;;;46.25;38.25;;;;;18.80;86.41;101432.84;6192128;23;49479;-76
2023/07/14 05:02:36;;;;;;;;;42.25;37.25;;;;;18.80;83.37;101406.91;6164848;23;46877;-76
2023/07/14 05:05:18;;;;;;;;;43.00;37.00;;;;;18.81;81.89;101407.75;6191723;23;51523;-76
2023/07/14 05:07:44;;;;;;;;;45.00;38.25;;;;;18.89;82.69;101419.63;6194188;23;45222;-76
2023/07/14 05:10:10;;;;;;;;;29.25;28.00;;;;;18.96;83.59;101420.91;6193763;23;45323;-76
2023/07/14 05:12:36;;;;;;;;;45.50;37.75;;;;;18.98;83.78;101407.38;6192329;23;45292;-76
2023/07/14 05:15:06;;;;;;;;;38.25;33.50;;;;;18.98;86.81;101396.66;6162528;23;45446;-76
2023/07/14 05:17:35;;;;;;;;;51.75;42.75;;;;;19.02;82.52;101401.69;6163766;23;45275;-76
2023/07/14 05:20:00;;;;;;;;;46.00;37.75;;;;;19.12;82.74;101394.69;6191955;23;45339;-76
2023/07/14 05:22:26;;;;;;;;;40.00;35.75;;;;;19.15;81.66;101391.78;6191381;23;45395;-76
2023/07/14 05:24:51;;;;;;;;;36.50;33.50;;;;;19.22;81.51;101379.66;6193127;23;45359;-76
2023/07/14 05:27:17;;;;;;;;;44.50;38.00;;;;;19.21;79.86;101352.94;6193479;23;51584;-76
2023/07/14 05:29:44;;;;;;;;;51.75;44.00;;;;;19.29;79.13;101363.09;6166947;23;45684;-76
2023/07/14 05:32:09;;;;;;;;;36.75;34.00;;;;;19.40;78.76;101387.31;6193683;23;45313;-77
2023/07/14 05:34:35;;;;;;;;;39.75;36.00;;;;;19.47;80.89;101386.75;6193885;23;45270;-76
2023/07/14 05:37:00;;;;;;;;;41.50;34.50;;;;;19.49;78.99;101384.81;6191368;23;52173;-76
2023/07/14 05:39:25;;;;;;;;;48.25;41.50;;;;;19.56;78.77;101378.03;6193001;23;45143;-76
2023/07/14 05:41:51;;;;;;;;;46.25;40.50;;;;;19.55;76.37;101370.94;6191080;23;51847;-76
2023/07/14 05:44:16;;;;;;;;;40.25;35.75;;;;;19.68;75.17;101395.00;6188856;23;44652;-77
2023/07/14 05:46:41;;;;;;;;;39.75;35.50;;;;;19.72;75.43;101391.13;6187169;23;45450;-76
2023/07/14 05:49:07;;;;;;;;;44.00;37.75;;;;;19.70;74.76;101369.75;6187080;23;45271;-77
2023/07/14 05:51:32;;;;;;;;;46.00;39.25;;;;;19.88;75.25;101393.50;6186656;23;46262;-76
2023/07/14 05:53:57;;;;;;;;;48.25;41.75;;;;;19.88;74.34;101380.06;6186632;23;45368;-76
2023/07/14 05:56:23;;;;;;;;;46.25;39.00;;;;;19.98;73.72;101365.81;6186313;23;45473;-77
2023/07/14 05:58:48;;;;;;;;;41.00;36.75;;;;;19.96;74.56;101348.97;6159054;23;45418;-77
2023/07/14 06:01:13;;;;;;;;;21.25;21.25;;;;;19.96;79.53;101369.63;6184590;23;46136;-77
2023/07/14 06:03:39;;;;;;;;;41.25;37.00;;;;;19.96;75.32;101362.38;6183914;23;45641;-76
2023/07/14 06:06:05;;;;;;;;;45.75;40.00;;;;;20.06;76.50;101371.44;6183351;23;45501;-77
2023/07/14 06:08:31;;;;;;;;;42.00;37.00;;;;;20.04;73.51;101367.19;6185227;23;45298;-77
2023/07/14 06:10:56;;;;;;;;;24.50;24.50;;;;;20.11;72.46;101384.53;6185138;23;46304;-77
2023/07/14 06:13:22;;;;;;;;;35.75;32.50;;;;;20.07;71.11;101362.41;6184257;23;54367;-77
2023/07/14 06:15:50;;;;;;;;;40.75;36.50;;;;;20.15;71.66;101354.63;6185847;23;45294;-76
2023/07/14 06:18:16;;;;;;;;;39.00;34.50;;;;;20.24;71.51;101369.16;6185663;23;45365;-77
2023/07/14 06:20:42;;;;;;;;;26.75;26.00;;;;;20.24;72.97;101366.47;6185587;23;45830;-77
2023/07/14 06:23:07;;;;;;;;;17.25;16.75;;;;;20.37;72.99;101386.06;6185878;23;45218;-77
2023/07/14 06:25:33;;;;;;;;;26.25;25.25;;;;;20.37;71.41;101369.94;6158159;23;45409;-77
2023/07/14 06:27:59;;;;;;;;;25.00;23.75;;;;;20.46;70.98;101382.66;6183923;23;45314;-77
2023/07/14 06:30:25;;;;;;;;;18.50;18.50;;;;;20.56;69.92;101370.19;6158808;23;45555;-77
2023/07/14 06:32:51;;;;;;;;;22.50;22.50;;;;;20.51;69.99;101339.28;6185795;23;45231;-77
2023/07/14 06:35:17;;;;;;;;;12.00;11.50;;;;;20.74;70.78;101363.31;6186156;23;45364;-78
2023/07/14 06:37:42;;;;;;;;;16.25;16.25;;;;;20.82;68.44;101346.56;6157712;23;45318;-77
2023/07/14 06:40:09;;;;;;;;;12.00;12.00;;;;;20.89;68.28;101337.03;6183095;23;47058;-78
2023/07/14 06:42:34;;;;;;;;;17.75;16.25;;;;;20.88;67.80;101312.94;6184271;23;45337;-78
2023/07/14 06:44:59;;;;;;;;;24.50;24.50;;;;;20.99;68.16;101324.56;6183934;23;45269;-77
2023/07/14 06:47:25;;;;;;;;;31.00;30.50;;;;;21.13;66.89;101342.28;6186559;23;45250;-77
2023/07/14 06:49:50;;;;;;;;;24.25;24.25;;;;;21.16;67.13;101337.50;6183976;23;45631;-77
2023/07/14 06:52:16;;;;;;;;;26.00;26.00;;;;;21.22;66.40;101325.38;6183787;23;45455;-78
2023/07/14 06:54:41;;;;;;;;;30.75;29.25;;;;;21.29;66.86;101335.50;6185336;23;45216;-77
2023/07/14 06:57:08;;;;;;;;;28.00;28.00;;;;;21.35;64.52;101342.19;6192377;23;45292;-77
2023/07/14 06:59:33;;;;;;;;;32.50;30.25;;;;;21.41;65.14;101346.19;6188160;23;45979;-76
2023/07/14 07:01:58;;;;;;;;;30.50;29.50;;;;;21.50;65.61;101345.44;6187772;23;45382;-77
2023/07/14 07:04:26;;;;;;;;;25.25;25.25;;;;;21.51;67.13;101331.84;6191025;23;45164;-77
2023/07/14 07:06:52;;;;;;;;;32.75;31.75;;;;;21.63;64.78;101328.09;6187354;23;45389;-77
2023/07/14 07:09:19;;;;;;;;;26.50;26.50;;;;;21.68;63.93;101319.66;6186695;23;46728;-77
2023/07/14 07:11:44;;;;;;;;;37.33;33.00;;;;;21.82;62.52;101322.84;6187048;23;45239;-77
2023/07/14 07:14:09;;;;;;;;;25.00;23.75;;;;;21.89;61.79;101315.13;6191539;23;45870;-77
2023/07/14 07:16:35;;;;;;;;;34.33;32.00;;;;;21.95;62.22;101303.84;6194959;23;45213;-77
2023/07/14 07:19:01;;;;;;;;;43.50;38.25;;;;;22.07;61.36;101310.84;6192112;23;45247;-77
2023/07/14 07:21:26;;;;;;;;;32.00;29.67;;;;;22.05;62.25;101290.44;6163470;23;46194;-76
2023/07/14 07:23:54;;;;;;;;;32.67;31.00;;;;;22.19;62.40;101307.09;6167948;23;45275;-77
2023/07/14 07:26:20;;;;;;;;;33.50;31.75;;;;;22.26;60.14;101308.25;6192734;23;45335;-78
2023/07/14 07:28:46;;;;;;;;;31.33;30.67;;;;;22.36;60.64;101299.34;6187048;23;47787;-77
2023/07/14 07:31:11;;;;;;;;;39.25;35.75;;;;;22.53;60.90;101293.31;6163732;23;45238;-77
2023/07/14 07:33:37;;;;;;;;;44.00;37.00;;;;;22.70;60.23;101303.50;6190833;23;45296;-77
2023/07/14 07:36:14;;;;;;;;;33.25;32.25;;;;;22.77;58.57;101310.88;6195900;23;45223;-77
2023/07/14 07:38:45;;;;;;;;;31.75;31.00;;;;;22.76;58.77;101294.84;6194528;23;46154;-77
2023/07/14 07:41:18;;;;;;;;;39.00;35.67;;;;;22.87;60.79;101294.72;6191797;23;45328;-77
2023/07/14 07:43:44;;;;;;;;;21.75;21.75;;;;;23.03;56.74;101303.13;6165823;23;45297;-76
2023/07/14 07:46:10;;;;;;;;;25.25;25.25;;;;;23.12;58.20;101293.34;6191190;23;45251;-76
2023/07/14 07:48:36;;;;;;;;;147.00;146.67;;;;;23.21;55.83;101292.47;6190833;23;46007;-76
2023/07/14 07:51:04;;;;;;;;;25.33;25.33;;;;;23.18;57.04;101258.53;6190904;23;45238;-76
2023/07/14 07:53:29;;;;;;;;;27.75;25.50;;;;;23.35;56.74;101268.63;6187297;23;45300;-77
2023/07/14 07:55:57;;;;;;;;;35.67;33.33;;;;;23.50;55.42;101277.16;6161146;23;45256;-76
2023/07/14 07:58:26;;;;;;;;;28.33;28.00;;;;;23.57;55.82;101259.38;6187484;23;46564;-76
2023/07/14 08:01:03;;;;;;;;;150.00;150.00;;;;;23.59;55.64;101262.78;6186872;23;45400;-76
2023/07/14 08:03:29;;;;;;;;;138.67;138.67;;;;;23.61;55.71;101266.19;6187051;23;45234;-77
2023/07/14 08:06:02;;;;;;;;;33.33;30.00;;;;;23.59;56.01;101262.78;6160181;23;45453;-77
2023/07/14 08:08:29;;;;;;;;;123.50;122.00;;;;;23.45;55.12;101221.88;6186099;23;46379;-77
2023/07/14 08:10:54;;;;;;;;;25.67;23.33;;;;;23.65;55.44;101248.72;6183322;23;45235;-76
2023/07/14 08:13:20;;;;;;;;;148.00;148.00;;;;;23.71;54.23;101253.53;6185976;23;45196;-76
2023/07/14 08:15:45;;;;;;;;;122.50;121.00;;;;;23.81;53.89;101248.97;6185774;23;45203;-77
2023/07/14 08:18:10;;;;;;;;;107.25;104.75;;;;;23.79;54.89;101248.22;6185680;23;50445;-77
2023/07/14 08:20:40;;;;;;;;;157.33;154.33;;;;;23.94;54.00;101247.78;6185663;23;45247;-77
2023/07/14 08:23:10;;;;;;;;;112.50;112.50;;;;;23.95;55.80;101246.78;6158744;23;45316;-76
2023/07/14 08:25:37;;;;;;;;;155.67;152.00;;;;;24.16;53.49;101245.59;6183620;23;45401;-77
2023/07/14 08:28:04;;;;;;;;;112.75;111.75;;;;;24.23;53.99;101244.00;6185048;23;46540;-76
2023/07/14 08:30:29;;;;;;;;;123.00;120.00;;;;;24.26;52.74;101243.69;6184494;23;45551;-77
2023/07/14 08:32:56;;;;;;;;;38.33;29.67;;;;;24.34;52.83;101246.47;6183349;23;45364;-76
2023/07/14 08:35:21;;;;;;;;;23.33;19.33;;;;;24.29;53.32;101229.88;6183233;23;45494;-77
2023/07/14 08:37:47;;;;;;;;;55.75;45.75;;;;;24.40;51.68;101236.94;6184656;23;45404;-76
2023/07/14 08:40:15;;;;;;;;;60.33;50.00;;;;;24.50;53.08;101228.75;6158090;23;45317;-76
2023/07/14 08:43:19;;;;;;;;;51.25;42.25;;;;;24.59;52.98;101222.44;6183065;23;45290;-76
2023/07/14 08:46:15;;;;;;;;;62.33;51.67;;;;;24.57;52.02;101210.94;6158521;23;45473;-77
2023/07/14 08:48:48;;;;;;;;;56.40;47.20;;;;;24.62;51.84;101203.19;6157782;23;45498;-76
2023/07/14 08:51:23;;;;;;;;;62.00;51.40;;;;;25.05;50.39;101205.19;6183326;23;45280;-76
2023/07/14 08:53:55;;;;;;;;;73.40;63.80;;;;;25.30;49.18;101204.34;6185432;23;45433;-77
2023/07/14 08:56:21;;;;;;;;;153.00;144.50;;;;;25.53;49.40;101196.59;6157601;23;45394;-76
2023/07/14 08:58:50;;;;;;;;;75.80;65.60;;;;;25.74;49.15;101195.25;6185291;23;46441;-76
2023/07/14 09:01:18;;;;;;;;;68.40;57.60;;;;;25.97;50.38;101187.38;6184999;23;45312;-76
2023/07/14 09:03:53;;;;;;;;;78.50;72.50;;;;;26.09;49.38;101160.81;6185993;23;45400;-77
2023/07/14 09:06:23;;;;;;;;;80.60;74.20;;;;;26.24;48.28;101180.94;6187676;23;45313;-77
2023/07/14 09:08:50;;;;;;;;;71.00;62.00;;;;;26.46;48.95;101180.31;6188105;23;45237;-77
2023/07/14 09:11:27;;;;;;;;;76.20;67.20;;;;;26.56;47.78;101169.31;6187012;23;45159;-77
2023/07/14 09:13:59;;;;;;;;;254.00;67.00;;;;;26.78;46.39;101172.22;6188616;23;45318;-76
2023/07/14 09:16:29;;;;;;;;;0.00;0.00;;;;;26.73;44.95;101146.63;6188615;23;45465;-77
2023/07/14 09:19:07;;;;;;;;;290.40;68.60;;;;;26.80;46.16;101161.19;6188303;23;45521;-76
2023/07/14 09:21:44;;;;;;;;;3496.50;3496.50;;;;;26.96;44.15;101158.53;6186799;23;45309;-76
2023/07/14 09:24:20;;;;;;;;;0.00;0.00;;;;;27.04;43.96;101138.66;6185721;23;45239;-76
2023/07/14 09:26:51;;;;;;;;;3500.67;3500.67;;;;;27.33;42.61;101158.84;6184765;23;45581;-76
2023/07/14 09:29:39;;;;;;;;;3518.67;3518.67;;;;;27.53;43.90;101139.47;6185513;23;46476;-76
2023/07/14 09:32:30;;;;;;;;;3510.00;3510.00;;;;;27.77;44.55;101139.41;6184813;23;45218;-76
2023/07/14 09:35:07;;;;;;;;;3471.40;3471.40;;;;;27.95;43.40;101148.16;6185016;23;45254;-76
2023/07/14 09:37:56;;;;;;;;;3486.33;3486.33;;;;;28.07;41.86;101141.34;6185235;23;45167;-76
2023/07/14 09:40:25;;;;;;;;;3442.75;3442.75;;;;;28.11;42.13;101130.97;6174052;23;45392;-75
2023/07/14 09:42:53;;;;;;;;;3457.67;3457.67;;;;;28.15;41.33;101108.66;6184722;23;45313;-74
2023/07/14 09:45:25;;;;;;;;;3446.33;3446.33;;;;;28.30;40.79;101111.47;6184650;23;45360;-76
2023/07/14 09:47:56;;;;;;;;;3461.00;3461.00;;;;;28.44;42.21;101107.97;6184672;23;45384;-75
2023/07/14 09:50:23;;;;;;;;;3448.00;3448.00;;;;;28.65;40.94;101110.88;6185078;23;45460;-75
2023/07/14 09:52:55;;;;;;;;;3470.00;3470.00;;;;;28.69;39.67;101111.41;6183222;23;45457;-75
2023/07/14 09:55:20;;;;;;;;;3446.33;3446.33;;;;;28.69;41.22;101089.63;6157796;23;45416;-75
2023/07/14 09:57:49;;;;;;;;;3440.00;3440.00;;;;;28.93;39.94;101103.00;6182160;23;45472;-75
2023/07/14 10:00:24;;;;;;;;;3435.00;3435.00;;;;;29.10;41.63;101093.66;6157874;23;46689;-75
2023/07/14 10:02:56;;;;;;;;;3463.00;3463.00;;;;;29.35;38.85;101086.94;6184554;23;45465;-75
2023/07/14 10:05:22;;;;;;;;;3439.67;3439.67;;;;;29.59;38.47;101088.56;6184824;23;45210;-75
2023/07/14 10:07:47;;;;;;;;;3457.75;3457.75;;;;;29.68;37.90;101079.22;6182466;23;45525;-75
2023/07/14 10:10:14;;;;;;;;;3447.00;3447.00;;;;;29.78;37.79;101074.34;6185330;23;46426;-75
2023/07/14 10:12:46;;;;;;;;;3425.20;3425.20;;;;;29.86;38.23;101079.72;6183790;23;45254;-75
2023/07/14 10:15:34;;;;;;;;;3456.00;3456.00;;;;;29.97;37.55;101081.94;6184710;23;45247;-75
2023/07/14 10:18:13;;;;;;;;;3429.67;3429.67;;;;;30.05;35.76;101064.63;6181679;23;45306;-75
2023/07/14 10:20:39;;;;;;;;;3453.33;3453.33;;;;;30.11;36.25;101060.28;6184186;23;46340;-75
2023/07/14 10:23:13;;;;;;;;;3466.50;3466.50;;;;;30.15;35.92;101048.78;6182760;23;45205;-75
2023/07/14 10:25:39;;;;;;;;;3443.00;3443.00;;;;;30.14;34.56;101055.28;6184771;23;45276;-75
2023/07/14 10:28:11;;;;;;;;;3401.50;3401.50;;;;;30.12;36.20;101034.69;6158252;23;45593;-75
2023/07/14 10:30:55;;;;;;;;;3441.00;3441.00;;;;;30.36;36.91;101048.81;6185854;23;45531;-76
2023/07/14 10:33:29;;;;;;;;;3401.50;3401.50;;;;;30.36;32.22;101023.41;6183922;23;45473;-76
2023/07/14 10:36:06;;;;;;;;;3443.67;3443.67;;;;;30.24;35.60;101041.31;6186260;23;45435;-76
2023/07/14 10:38:55;;;;;;;;;3424.75;3424.75;;;;;30.06;35.38;101030.88;6158084;23;45608;-76
2023/07/14 10:41:23;;;;;;;;;3458.00;3458.00;;;;;30.28;35.18;101029.84;6158264;23;45628;-76
2023/07/14 10:44:01;;;;;;;;;3435.00;3435.00;;;;;30.35;34.42;101024.44;6158725;23;45345;-75
2023/07/14 10:46:32;;;;;;;;;3407.00;3407.00;;;;;30.48;34.08;101022.72;6186416;23;45474;-76
2023/07/14 10:49:22;;;;;;;;;3453.00;3453.00;;;;;30.45;36.88;101017.66;6184397;23;45448;-76
2023/07/14 10:51:52;;;;;;;;;3453.33;3453.33;;;;;30.32;36.21;101009.31;6157883;23;45643;-76
2023/07/14 10:54:34;;;;;;;;;3433.67;3433.67;;;;;30.04;37.04;100992.00;6186211;23;45535;-76
2023/07/14 10:57:14;;;;;;;;;3438.67;3438.67;;;;;30.03;35.40;100998.50;6185749;23;45335;-76
2023/07/14 10:59:58;;;;;;;;;3448.33;3448.33;;;;;30.38;36.92;100975.75;6159181;23;45339;-76
2023/07/14 11:02:35;;;;;;;;;3448.00;3448.00;;;;;30.80;37.10;100977.59;6185527;23;46045;-76
2023/07/14 11:05:15;;;;;;;;;3399.75;3399.75;;;;;30.99;34.97;100978.78;6158432;23;45343;-76
2023/07/14 11:07:41;;;;;;;;;3448.00;3448.00;;;;;31.07;35.24;100975.91;6158753;23;45485;-77
2023/07/14 11:10:18;;;;;;;;;3423.00;3423.00;;;;;31.23;33.90;100950.97;6185674;23;45440;-76
2023/07/14 11:13:00;;;;;;;;;3433.40;3433.40;;;;;31.12;33.41;100953.44;6184917;23;46049;-76
2023/07/14 11:15:40;;;;;;;;;3402.80;3402.80;;;;;31.41;34.08;100951.25;6184533;23;45570;-77